createdAt,value
2022-12-29T00:00:24.864Z,74.22
2022-12-29T00:03:12.825Z,73.50
2022-12-29T00:05:41.855Z,73.28
2022-12-29T00:08:09.821Z,73.49
2022-12-29T00:10:37.689Z,73.90
2022-12-29T00:13:23.990Z,74.43
2022-12-29T00:15:51.868Z,75.09
2022-12-29T00:18:19.846Z,75.13
2022-12-29T00:21:06.382Z,75.18
2022-12-29T00:23:56.054Z,75.07
2022-12-29T00:26:42.416Z,75.06
2022-12-29T00:29:29.236Z,75.00
2022-12-29T00:32:15.935Z,74.53
2022-12-29T00:35:03.258Z,74.27
2022-12-29T00:37:49.837Z,74.40
2022-12-29T00:40:53.373Z,74.11
2022-12-29T00:43:41.309Z,73.82
2022-12-29T00:46:12.892Z,73.50
2022-12-29T00:49:02.530Z,72.99
2022-12-29T00:51:30.393Z,72.30
2022-12-29T00:53:58.270Z,73.20
2022-12-29T00:56:26.243Z,73.49
2022-12-29T00:58:54.209Z,73.89
2022-12-29T01:01:22.172Z,74.58
2022-12-29T01:03:50.256Z,74.88
2022-12-29T01:06:18.228Z,74.94
2022-12-29T01:08:46.298Z,74.92
2022-12-29T01:11:15.389Z,74.90
2022-12-29T01:13:44.890Z,74.79
2022-12-29T01:16:12.925Z,74.55
2022-12-29T01:18:40.815Z,74.14
2022-12-29T01:21:08.801Z,74.03
2022-12-29T01:23:36.668Z,73.73
2022-12-29T01:26:11.635Z,73.72
2022-12-29T01:28:42.852Z,73.49
2022-12-29T01:31:11.358Z,73.34
2022-12-29T01:33:39.279Z,73.19
2022-12-29T01:36:14.941Z,72.78
2022-12-29T01:38:43.426Z,71.92
2022-12-29T01:41:13.032Z,72.10
2022-12-29T01:43:42.742Z,72.79
2022-12-29T01:46:22.230Z,73.20
2022-12-29T01:48:52.814Z,73.34
2022-12-29T01:51:22.733Z,73.57
2022-12-29T01:53:51.319Z,74.29
2022-12-29T01:56:20.508Z,74.51
2022-12-29T01:58:50.150Z,74.29
2022-12-29T02:01:19.604Z,74.40
2022-12-29T02:03:48.618Z,74.27
2022-12-29T02:06:20.123Z,74.33
2022-12-29T02:08:48.653Z,74.35
2022-12-29T02:11:17.155Z,74.47
2022-12-29T02:13:45.110Z,74.10
2022-12-29T02:16:16.121Z,74.26
2022-12-29T02:18:44.236Z,74.24
2022-12-29T02:21:30.464Z,74.30
2022-12-29T02:24:17.221Z,74.26
2022-12-29T02:27:06.084Z,74.13
2022-12-29T02:29:37.023Z,73.88
2022-12-29T02:32:09.399Z,73.71
2022-12-29T02:34:46.586Z,73.66
2022-12-29T02:37:20.904Z,73.25
2022-12-29T02:39:57.775Z,73.05
2022-12-29T02:42:37.989Z,73.33
2022-12-29T02:45:10.680Z,73.62
2022-12-29T02:47:43.103Z,73.25
2022-12-29T02:50:24.368Z,72.88
2022-12-29T02:52:56.027Z,72.72
2022-12-29T02:55:23.999Z,71.73
2022-12-29T02:58:09.617Z,71.12
2022-12-29T03:00:43.527Z,70.92
2022-12-29T03:03:29.798Z,71.21
2022-12-29T03:06:10.489Z,70.90
2022-12-29T03:08:39.666Z,70.81
2022-12-29T03:11:31.666Z,70.44
2022-12-29T03:14:40.919Z,70.61
2022-12-29T03:17:11.563Z,71.11
2022-12-29T03:19:48.841Z,71.42
2022-12-29T03:22:31.965Z,71.70
2022-12-29T03:25:11.450Z,72.02
2022-12-29T03:27:45.520Z,72.27
2022-12-29T03:30:14.727Z,72.46
2022-12-29T03:32:47.393Z,72.39
2022-12-29T03:35:17.027Z,72.40
2022-12-29T03:37:56.136Z,72.73
2022-12-29T03:40:25.024Z,72.87
2022-12-29T03:42:54.430Z,72.93
2022-12-29T03:45:22.397Z,73.17
2022-12-29T03:47:51.275Z,73.10
2022-12-29T03:50:19.840Z,73.51
2022-12-29T03:52:48.557Z,73.86
2022-12-29T03:55:16.850Z,74.11
2022-12-29T03:57:46.854Z,74.43
2022-12-29T04:00:19.053Z,74.39
2022-12-29T04:02:50.123Z,74.53
2022-12-29T04:05:25.104Z,74.55
2022-12-29T04:07:55.509Z,74.76
2022-12-29T04:10:24.720Z,74.77
2022-12-29T04:12:56.681Z,74.61
2022-12-29T04:15:25.365Z,74.76
2022-12-29T04:17:53.662Z,74.68
2022-12-29T04:20:40.258Z,74.46
2022-12-29T04:23:08.950Z,74.23
2022-12-29T04:25:37.837Z,73.71
2022-12-29T04:28:06.525Z,73.49
2022-12-29T04:31:01.554Z,73.25
2022-12-29T04:33:37.997Z,73.36
2022-12-29T04:36:06.167Z,73.57
2022-12-29T04:38:34.379Z,73.98
2022-12-29T04:41:05.179Z,74.19
2022-12-29T04:43:33.971Z,74.33
2022-12-29T04:46:22.407Z,74.51
2022-12-29T04:49:05.764Z,74.54
2022-12-29T04:52:09.659Z,74.32
2022-12-29T04:54:38.547Z,74.40
2022-12-29T04:57:11.330Z,74.33
2022-12-29T04:59:40.574Z,74.24
2022-12-29T05:02:09.518Z,74.20
2022-12-29T05:04:37.799Z,74.34
2022-12-29T05:07:05.769Z,74.65
2022-12-29T05:09:33.838Z,74.34
2022-12-29T05:12:02.046Z,74.05
2022-12-29T05:14:31.212Z,74.06
2022-12-29T05:16:59.243Z,74.03
2022-12-29T05:19:27.741Z,74.03
2022-12-29T05:21:55.741Z,74.03
2022-12-29T05:24:23.910Z,73.96
2022-12-29T05:26:54.037Z,74.24
2022-12-29T05:29:41.021Z,74.21
2022-12-29T05:32:09.831Z,74.35
2022-12-29T05:34:37.806Z,74.16
2022-12-29T05:37:06.599Z,74.44
2022-12-29T05:39:34.569Z,74.53
2022-12-29T05:42:05.061Z,74.79
2022-12-29T05:44:54.924Z,75.12
2022-12-29T05:47:45.912Z,75.43
2022-12-29T05:50:28.105Z,75.38
2022-12-29T05:53:09.772Z,75.43
2022-12-29T05:55:43.434Z,75.16
2022-12-29T05:58:15.753Z,75.06
2022-12-29T06:00:45.264Z,75.07
2022-12-29T06:03:13.644Z,75.22
2022-12-29T06:05:43.140Z,75.56
2022-12-29T06:08:11.120Z,75.82
2022-12-29T06:10:39.077Z,75.94
2022-12-29T06:13:07.361Z,75.90
2022-12-29T06:15:38.507Z,75.17
2022-12-29T06:18:13.748Z,73.70
2022-12-29T06:20:47.485Z,73.74
2022-12-29T06:23:17.768Z,74.26
2022-12-29T06:25:46.044Z,74.47
2022-12-29T06:28:14.014Z,75.06
2022-12-29T06:30:44.034Z,75.52
2022-12-29T06:33:12.629Z,75.01
2022-12-29T06:35:40.938Z,74.76
2022-12-29T06:38:08.893Z,74.69
2022-12-29T06:40:36.855Z,74.03
2022-12-29T06:43:23.234Z,73.19
2022-12-29T06:46:06.225Z,72.91
2022-12-29T06:48:34.327Z,72.73
2022-12-29T06:51:02.501Z,72.16
2022-12-29T06:53:30.475Z,71.67
2022-12-29T06:55:58.342Z,71.28
2022-12-29T06:58:26.521Z,71.30
2022-12-29T07:00:54.508Z,70.86
2022-12-29T07:03:22.738Z,70.20
2022-12-29T07:05:50.646Z,69.20
2022-12-29T07:08:18.664Z,67.54
2022-12-29T07:10:46.955Z,65.52
2022-12-29T07:13:14.816Z,63.83
2022-12-29T07:15:42.713Z,62.41
2022-12-29T07:18:10.683Z,61.18
2022-12-29T07:20:38.645Z,59.63
2022-12-29T07:23:06.824Z,58.34
2022-12-29T07:25:37.019Z,57.52
2022-12-29T07:28:05.240Z,57.13
2022-12-29T07:30:33.286Z,56.69
2022-12-29T07:33:01.839Z,56.75
2022-12-29T07:35:29.750Z,56.51
2022-12-29T07:37:57.575Z,56.82
2022-12-29T07:40:25.384Z,57.04
2022-12-29T07:42:53.340Z,57.56
2022-12-29T07:45:29.472Z,57.33
2022-12-29T07:48:12.621Z,57.11
2022-12-29T07:50:40.574Z,56.81
2022-12-29T07:53:08.601Z,56.54
2022-12-29T07:55:36.506Z,55.85
2022-12-29T07:58:04.518Z,55.50
2022-12-29T08:00:32.483Z,54.68
2022-12-29T08:03:00.449Z,53.08
2022-12-29T08:05:28.718Z,51.55
2022-12-29T08:07:56.790Z,50.52
2022-12-29T08:10:25.308Z,49.60
2022-12-29T08:12:53.784Z,48.47
2022-12-29T08:15:25.722Z,47.37
2022-12-29T08:17:56.528Z,46.41
2022-12-29T08:20:24.415Z,45.99
2022-12-29T08:22:52.370Z,45.72
2022-12-29T08:25:20.749Z,45.39
2022-12-29T08:27:48.640Z,45.36
2022-12-29T08:30:17.624Z,44.74
2022-12-29T08:32:45.498Z,43.74
2022-12-29T08:35:13.979Z,43.02
2022-12-29T08:37:41.952Z,42.83
2022-12-29T08:40:10.327Z,41.97
2022-12-29T08:42:38.298Z,40.90
2022-12-29T08:45:07.901Z,40.17
2022-12-29T08:47:36.283Z,38.98
2022-12-29T08:50:04.463Z,38.34
2022-12-29T08:52:32.641Z,37.34
2022-12-29T08:55:00.622Z,36.60
2022-12-29T08:57:28.672Z,36.09
2022-12-29T09:00:07.127Z,35.36
2022-12-29T09:02:35.323Z,34.60
2022-12-29T09:05:03.772Z,33.93
2022-12-29T09:07:31.759Z,33.01
2022-12-29T09:09:59.783Z,33.39
2022-12-29T09:12:32.975Z,33.56
2022-12-29T09:15:04.849Z,33.49
2022-12-29T09:17:42.027Z,33.80
2022-12-29T09:20:10.528Z,33.69
2022-12-29T09:22:38.603Z,34.13
2022-12-29T09:25:06.749Z,34.83
2022-12-29T09:27:34.826Z,35.21
2022-12-29T09:30:04.231Z,35.79
2022-12-29T09:32:34.239Z,36.05
2022-12-29T09:35:02.782Z,35.97
2022-12-29T09:37:30.663Z,36.05
2022-12-29T09:39:58.565Z,35.61
2022-12-29T09:42:31.353Z,34.89
2022-12-29T09:45:11.604Z,34.67
2022-12-29T09:47:40.293Z,34.46
2022-12-29T09:50:11.324Z,33.79
2022-12-29T09:52:48.614Z,33.31
2022-12-29T09:55:18.634Z,32.43
2022-12-29T09:57:48.964Z,32.09
2022-12-29T10:00:18.884Z,32.06
2022-12-29T10:02:51.887Z,31.68
2022-12-29T10:05:30.072Z,30.86
2022-12-29T10:07:58.014Z,30.59
2022-12-29T10:10:45.000Z,29.99
2022-12-29T10:13:32.147Z,29.61
2022-12-29T10:16:00.346Z,30.25
2022-12-29T10:18:43.883Z,31.34
2022-12-29T10:21:17.599Z,32.78
2022-12-29T10:23:47.119Z,30.70
2022-12-29T10:26:17.108Z,30.27
2022-12-29T10:28:49.648Z,30.06
2022-12-29T10:31:22.914Z,29.69
2022-12-29T10:33:56.373Z,29.40
2022-12-29T10:36:41.864Z,28.55
2022-12-29T10:39:12.608Z,27.69
2022-12-29T10:41:45.065Z,26.85
2022-12-29T10:44:16.183Z,25.49
2022-12-29T10:46:45.314Z,24.95
2022-12-29T10:49:21.893Z,24.04
2022-12-29T10:51:53.111Z,23.06
2022-12-29T10:54:25.086Z,22.53
2022-12-29T10:57:00.953Z,21.93
2022-12-29T10:59:34.026Z,22.38
2022-12-29T11:02:15.552Z,22.76
2022-12-29T11:04:56.184Z,22.14
2022-12-29T11:07:27.405Z,21.52
2022-12-29T11:09:55.646Z,21.47
2022-12-29T11:12:27.787Z,21.32
2022-12-29T11:15:21.890Z,21.33
2022-12-29T11:17:51.464Z,21.28
2022-12-29T11:20:36.134Z,21.34
2022-12-29T11:23:05.144Z,21.26
2022-12-29T11:25:33.083Z,21.45
2022-12-29T11:28:17.368Z,21.28
2022-12-29T11:30:45.427Z,20.99
2022-12-29T11:33:13.477Z,20.94
2022-12-29T11:35:43.501Z,21.45
2022-12-29T11:38:21.190Z,21.29
2022-12-29T11:40:49.470Z,20.26
2022-12-29T11:43:32.183Z,19.81
2022-12-29T11:46:00.825Z,19.64
2022-12-29T11:48:30.172Z,19.66
2022-12-29T11:51:00.906Z,19.61
2022-12-29T11:53:45.281Z,19.75
2022-12-29T11:56:17.623Z,19.59
2022-12-29T11:58:45.914Z,19.03
2022-12-29T12:01:13.781Z,18.66
2022-12-29T12:04:00.195Z,19.06
2022-12-29T12:06:29.789Z,20.08
2022-12-29T12:09:02.055Z,19.96
2022-12-29T12:11:37.947Z,20.57
2022-12-29T12:14:12.124Z,20.61
2022-12-29T12:17:03.346Z,20.91
2022-12-29T12:19:49.930Z,20.96
2022-12-29T12:22:27.242Z,20.80
2022-12-29T12:24:58.282Z,20.42
2022-12-29T12:27:41.382Z,20.29
2022-12-29T12:30:12.604Z,20.62
2022-12-29T12:32:46.878Z,20.69
2022-12-29T12:35:21.356Z,21.34
2022-12-29T12:37:52.483Z,22.03
2022-12-29T12:40:20.508Z,23.28
2022-12-29T12:42:51.553Z,24.44
2022-12-29T12:45:38.255Z,25.13
2022-12-29T12:48:12.120Z,25.70
2022-12-29T12:50:40.139Z,26.84
2022-12-29T12:53:08.138Z,27.38
2022-12-29T12:55:35.974Z,27.71
2022-12-29T12:58:09.986Z,27.84
2022-12-29T13:01:03.989Z,27.98
2022-12-29T13:03:47.541Z,28.36
2022-12-29T13:06:15.463Z,28.34
2022-12-29T13:08:43.332Z,27.64
2022-12-29T13:11:30.347Z,26.91
2022-12-29T13:14:07.235Z,27.26
2022-12-29T13:16:38.402Z,27.13
2022-12-29T13:19:18.527Z,27.09
2022-12-29T13:21:53.683Z,27.02
2022-12-29T13:24:28.394Z,26.78
2022-12-29T13:27:05.366Z,26.49
2022-12-29T13:29:33.234Z,26.55
2022-12-29T13:32:01.100Z,26.76
2022-12-29T13:34:29.073Z,27.19
2022-12-29T13:37:01.198Z,28.49
2022-12-29T13:39:34.140Z,30.02
2022-12-29T13:42:03.831Z,31.57
2022-12-29T13:44:36.366Z,33.05
2022-12-29T13:47:23.949Z,34.20
2022-12-29T13:49:53.135Z,35.20
2022-12-29T13:52:39.737Z,36.18
2022-12-29T13:55:34.347Z,37.08
2022-12-29T13:58:08.367Z,37.64
2022-12-29T14:00:45.434Z,38.68
2022-12-29T14:03:24.895Z,39.65
2022-12-29T14:06:14.853Z,40.58
2022-12-29T14:08:43.445Z,41.43
2022-12-29T14:11:12.873Z,41.67
2022-12-29T14:13:42.031Z,42.15
2022-12-29T14:16:22.248Z,42.92
2022-12-29T14:18:50.266Z,43.76
2022-12-29T14:21:18.151Z,44.22
2022-12-29T14:23:51.025Z,44.85
2022-12-29T14:26:31.693Z,45.58
2022-12-29T14:29:34.570Z,45.90
2022-12-29T14:32:02.550Z,46.39
2022-12-29T14:34:32.465Z,46.74
2022-12-29T14:37:04.537Z,46.68
2022-12-29T14:39:35.266Z,46.90
2022-12-29T14:42:13.469Z,47.91
2022-12-29T14:44:47.696Z,48.47
2022-12-29T14:47:26.389Z,49.08
2022-12-29T14:49:55.195Z,45.95
2022-12-29T14:52:27.056Z,43.68
2022-12-29T14:54:58.909Z,46.58
2022-12-29T14:57:30.058Z,49.89
2022-12-29T15:00:01.865Z,51.32
2022-12-29T15:02:34.113Z,52.20
2022-12-29T15:05:03.547Z,52.43
2022-12-29T15:07:33.340Z,52.73
2022-12-29T15:10:06.306Z,53.15
2022-12-29T15:12:38.472Z,53.53
2022-12-29T15:15:18.522Z,54.28
2022-12-29T15:17:46.810Z,54.44
2022-12-29T15:20:17.867Z,54.86
2022-12-29T15:22:46.384Z,55.15
2022-12-29T15:25:16.395Z,55.67
2022-12-29T15:27:49.240Z,56.23
2022-12-29T15:30:18.375Z,56.79
2022-12-29T15:32:47.714Z,56.60
2022-12-29T15:35:30.223Z,57.01
2022-12-29T15:37:58.811Z,57.33
2022-12-29T15:40:33.580Z,57.52
2022-12-29T15:43:07.338Z,57.54
2022-12-29T15:45:36.854Z,57.58
2022-12-29T15:48:06.041Z,56.76
2022-12-29T15:50:35.169Z,57.73
2022-12-29T15:53:03.514Z,58.26
2022-12-29T15:55:31.493Z,57.82
2022-12-29T15:58:00.691Z,58.87
2022-12-29T16:00:33.169Z,59.62
2022-12-29T16:03:03.519Z,58.88
2022-12-29T16:05:36.743Z,59.45
2022-12-29T16:08:17.963Z,59.90
2022-12-29T16:10:46.152Z,60.04
2022-12-29T16:13:17.175Z,60.73
2022-12-29T16:15:48.935Z,61.27
2022-12-29T16:18:28.583Z,61.64
2022-12-29T16:20:57.542Z,61.49
2022-12-29T16:23:27.801Z,61.39
2022-12-29T16:25:58.800Z,60.70
2022-12-29T16:28:37.264Z,61.13
2022-12-29T16:31:06.792Z,61.82
2022-12-29T16:33:48.659Z,62.03
2022-12-29T16:36:22.533Z,62.40
2022-12-29T16:38:50.535Z,62.25
2022-12-29T16:41:31.711Z,61.80
2022-12-29T16:44:13.580Z,62.76
2022-12-29T16:47:00.439Z,63.27
2022-12-29T16:49:29.101Z,63.70
2022-12-29T16:51:57.182Z,64.05
2022-12-29T16:54:26.265Z,64.52
2022-12-29T16:56:54.572Z,64.68
2022-12-29T16:59:32.754Z,64.43
2022-12-29T17:02:02.524Z,64.38
2022-12-29T17:04:31.189Z,64.81
2022-12-29T17:06:59.101Z,65.38
2022-12-29T17:09:28.966Z,65.28
2022-12-29T17:12:05.371Z,65.18
2022-12-29T17:14:38.289Z,65.72
2022-12-29T17:17:10.955Z,65.96
2022-12-29T17:19:39.569Z,65.81
2022-12-29T17:22:13.150Z,65.72
2022-12-29T17:24:41.127Z,65.87
2022-12-29T17:27:12.504Z,65.81
2022-12-29T17:29:41.371Z,65.66
2022-12-29T17:32:12.914Z,62.65
2022-12-29T17:34:41.604Z,62.30
2022-12-29T17:37:29.952Z,59.53
2022-12-29T17:39:57.968Z,60.49
2022-12-29T17:42:26.167Z,65.00
2022-12-29T17:44:54.166Z,65.87
2022-12-29T17:47:22.034Z,65.87
2022-12-29T17:49:50.001Z,67.13
2022-12-29T17:52:17.974Z,67.09
2022-12-29T17:54:53.187Z,67.21
2022-12-29T17:57:21.698Z,66.94
2022-12-29T17:59:50.067Z,67.09
2022-12-29T18:02:21.106Z,66.68
2022-12-29T18:04:49.093Z,66.25
2022-12-29T18:07:17.051Z,67.73
2022-12-29T18:09:45.021Z,68.27
2022-12-29T18:12:25.893Z,68.59
2022-12-29T18:14:53.782Z,69.06
2022-12-29T18:17:21.838Z,69.53
2022-12-29T18:19:50.927Z,69.48
2022-12-29T18:22:19.000Z,69.50
2022-12-29T18:24:46.864Z,69.95
2022-12-29T18:27:16.086Z,70.23
2022-12-29T18:29:44.037Z,70.35
2022-12-29T18:32:12.881Z,68.80
2022-12-29T18:34:41.300Z,69.72
2022-12-29T18:37:09.814Z,69.83
2022-12-29T18:39:38.069Z,70.03
2022-12-29T18:42:06.471Z,70.11
2022-12-29T18:44:34.716Z,69.57
2022-12-29T18:47:02.725Z,68.65
2022-12-29T18:49:30.873Z,69.51
2022-12-29T18:51:58.824Z,69.76
2022-12-29T18:54:28.747Z,68.72
2022-12-29T18:56:57.231Z,68.05
2022-12-29T18:59:25.824Z,67.58
2022-12-29T19:01:53.806Z,64.74
2022-12-29T19:04:22.479Z,63.92
2022-12-29T19:06:50.436Z,64.30
2022-12-29T19:09:19.016Z,68.70
2022-12-29T19:11:46.840Z,70.14
2022-12-29T19:14:17.155Z,70.91
2022-12-29T19:16:45.434Z,71.58
2022-12-29T19:19:14.989Z,71.18
2022-12-29T19:21:43.063Z,70.77
2022-12-29T19:24:11.027Z,70.16
2022-12-29T19:26:40.030Z,70.68
2022-12-29T19:29:13.752Z,70.96
2022-12-29T19:31:41.847Z,70.63
2022-12-29T19:34:11.842Z,71.07
2022-12-29T19:36:39.796Z,71.42
2022-12-29T19:39:07.899Z,71.34
2022-12-29T19:41:36.447Z,71.60
2022-12-29T19:44:04.542Z,71.88
2022-12-29T19:46:32.419Z,71.89
2022-12-29T19:49:00.456Z,71.73
2022-12-29T19:51:28.431Z,72.52
2022-12-29T19:53:56.496Z,72.87
2022-12-29T19:56:24.771Z,72.86
2022-12-29T19:58:52.950Z,72.90
2022-12-29T20:01:22.656Z,73.05
2022-12-29T20:03:51.172Z,72.69
2022-12-29T20:06:19.314Z,72.47
2022-12-29T20:08:47.487Z,72.11
2022-12-29T20:11:16.888Z,72.13
2022-12-29T20:13:45.289Z,72.28
2022-12-29T20:16:15.274Z,71.85
2022-12-29T20:18:44.348Z,71.68
2022-12-29T20:21:14.953Z,70.93
2022-12-29T20:23:43.805Z,71.15
2022-12-29T20:26:19.756Z,71.20
2022-12-29T20:28:48.128Z,71.00
2022-12-29T20:31:19.285Z,71.62
2022-12-29T20:33:47.484Z,70.30
2022-12-29T20:36:16.981Z,71.41
2022-12-29T20:38:45.769Z,71.67
2022-12-29T20:41:14.236Z,71.61
2022-12-29T20:43:42.312Z,71.79
2022-12-29T20:46:11.172Z,71.35
2022-12-29T20:48:39.274Z,71.64
2022-12-29T20:51:07.750Z,71.87
2022-12-29T20:53:36.647Z,72.24
2022-12-29T20:56:06.866Z,71.71
2022-12-29T20:58:47.220Z,71.77
2022-12-29T21:01:24.639Z,70.18
2022-12-29T21:03:52.791Z,71.23
2022-12-29T21:06:21.603Z,71.41
2022-12-29T21:08:51.099Z,71.64
2022-12-29T21:11:19.367Z,72.09
2022-12-29T21:13:47.951Z,72.04
2022-12-29T21:16:16.329Z,72.02
2022-12-29T21:18:44.701Z,69.62
2022-12-29T21:21:20.526Z,71.21
2022-12-29T21:23:48.829Z,70.63
2022-12-29T21:26:17.934Z,71.02
2022-12-29T21:28:46.411Z,71.32
2022-12-29T21:31:26.093Z,71.80
2022-12-29T21:33:54.734Z,71.53
2022-12-29T21:36:23.012Z,69.99
2022-12-29T21:38:51.207Z,70.74
2022-12-29T21:41:19.263Z,71.14
2022-12-29T21:44:06.187Z,71.02
2022-12-29T21:46:35.225Z,70.58
2022-12-29T21:49:04.059Z,70.07
2022-12-29T21:51:50.568Z,71.19
2022-12-29T21:54:38.199Z,72.33
2022-12-29T21:57:06.475Z,72.48
2022-12-29T21:59:52.772Z,72.44
2022-12-29T22:02:39.461Z,72.37
2022-12-29T22:05:26.802Z,71.93
2022-12-29T22:08:13.404Z,71.65
2022-12-29T22:11:00.951Z,71.36
2022-12-29T22:13:30.951Z,70.82
2022-12-29T22:15:58.978Z,69.62
2022-12-29T22:18:27.002Z,66.93
2022-12-29T22:20:54.919Z,69.97
2022-12-29T22:23:22.929Z,71.98
2022-12-29T22:25:51.397Z,72.54
2022-12-29T22:28:19.489Z,72.72
2022-12-29T22:30:47.391Z,72.32
2022-12-29T22:33:15.532Z,72.22
2022-12-29T22:35:43.330Z,72.57
2022-12-29T22:38:11.258Z,72.95
2022-12-29T22:40:39.138Z,72.99
2022-12-29T22:43:12.908Z,72.94
2022-12-29T22:45:41.591Z,72.80
2022-12-29T22:48:09.487Z,72.87
2022-12-29T22:50:38.818Z,72.84
2022-12-29T22:53:06.755Z,72.32
2022-12-29T22:55:34.731Z,71.46
2022-12-29T22:58:03.317Z,71.36
2022-12-29T23:00:31.178Z,72.76
2022-12-29T23:02:59.204Z,72.86
2022-12-29T23:05:27.414Z,70.84
2022-12-29T23:07:55.402Z,72.18
2022-12-29T23:10:23.476Z,72.87
2022-12-29T23:12:51.437Z,73.19
2022-12-29T23:15:19.311Z,73.14
2022-12-29T23:17:47.279Z,73.51
2022-12-29T23:20:15.141Z,74.06
2022-12-29T23:22:43.268Z,74.19
2022-12-29T23:25:11.235Z,74.19
2022-12-29T23:27:39.046Z,74.57
2022-12-29T23:30:07.217Z,74.44
2022-12-29T23:32:35.397Z,73.54
2022-12-29T23:35:03.261Z,73.32
2022-12-29T23:37:31.946Z,74.00
2022-12-29T23:39:59.915Z,74.23
2022-12-29T23:42:27.886Z,74.19
2022-12-29T23:44:56.165Z,74.19
2022-12-29T23:47:24.032Z,74.48
2022-12-29T23:49:51.999Z,74.77
2022-12-29T23:52:19.977Z,75.01
2022-12-29T23:54:49.573Z,75.04
2022-12-29T23:57:17.555Z,74.94
2022-12-29T23:59:45.423Z,75.28
